createdAt,value
2018-12-17T00:01:08.152Z,13.70
2018-12-17T00:03:35.658Z,15.93
2018-12-17T00:06:03.296Z,14.83
2018-12-17T00:08:32.076Z,17.27
2018-12-17T00:11:00.407Z,16.23
2018-12-17T00:13:27.918Z,16.43
2018-12-17T00:15:55.407Z,16.33
2018-12-17T00:18:22.911Z,17.93
2018-12-17T00:20:50.395Z,16.80
2018-12-17T00:23:17.979Z,18.30
2018-12-17T00:25:45.482Z,17.73
2018-12-17T00:28:12.986Z,19.13
2018-12-17T00:30:40.567Z,21.57
2018-12-17T00:33:08.073Z,19.83
2018-12-17T00:35:35.587Z,20.90
2018-12-17T00:38:03.088Z,19.87
2018-12-17T00:40:30.656Z,23.57
2018-12-17T00:42:58.160Z,18.63
2018-12-17T00:45:25.759Z,21.03
2018-12-17T00:47:53.254Z,21.20
2018-12-17T00:50:20.767Z,22.80
2018-12-17T00:52:48.282Z,22.43
2018-12-17T00:55:15.813Z,22.33
2018-12-17T00:57:43.313Z,21.73
2018-12-17T01:00:10.968Z,20.73
2018-12-17T01:02:38.476Z,24.37
2018-12-17T01:05:06.441Z,22.47
2018-12-17T01:07:33.960Z,22.50
2018-12-17T01:10:01.460Z,23.90
2018-12-17T01:12:28.986Z,21.40
2018-12-17T01:14:56.494Z,22.83
2018-12-17T01:17:23.998Z,22.07
2018-12-17T01:19:51.510Z,22.17
2018-12-17T01:22:19.263Z,22.10
2018-12-17T01:24:46.797Z,22.07
2018-12-17T01:27:14.312Z,22.47
2018-12-17T01:29:42.140Z,21.73
2018-12-17T01:32:09.667Z,22.57
2018-12-17T01:34:37.158Z,22.40
2018-12-17T01:37:04.660Z,21.80
2018-12-17T01:39:32.163Z,22.33
2018-12-17T01:41:59.665Z,22.90
2018-12-17T01:44:27.178Z,23.50
2018-12-17T01:46:54.683Z,22.43
2018-12-17T01:49:22.223Z,20.50
2018-12-17T01:51:49.741Z,20.07
2018-12-17T01:54:17.251Z,22.63
2018-12-17T01:56:44.757Z,23.20
2018-12-17T01:59:12.260Z,23.60
2018-12-17T02:01:40.327Z,22.73
2018-12-17T02:04:07.828Z,23.30
2018-12-17T02:06:35.321Z,23.43
2018-12-17T02:09:02.993Z,22.43
2018-12-17T02:11:30.519Z,24.33
2018-12-17T02:13:58.021Z,21.53
2018-12-17T02:16:25.536Z,23.03
2018-12-17T02:18:53.053Z,23.07
2018-12-17T02:21:20.555Z,24.07
2018-12-17T02:23:48.058Z,22.90
2018-12-17T02:26:15.617Z,24.17
2018-12-17T02:28:43.166Z,24.63
2018-12-17T02:31:10.661Z,23.63
2018-12-17T02:33:38.171Z,22.50
2018-12-17T02:36:05.659Z,22.67
2018-12-17T02:38:33.160Z,23.80
2018-12-17T02:41:00.660Z,21.17
2018-12-17T02:43:28.219Z,23.30
2018-12-17T02:45:55.816Z,24.53
2018-12-17T02:48:23.312Z,22.80
2018-12-17T02:50:50.822Z,24.50
2018-12-17T02:53:18.329Z,23.97
2018-12-17T02:55:45.843Z,23.73
2018-12-17T02:58:13.353Z,22.70
2018-12-17T03:00:40.860Z,23.10
2018-12-17T03:03:08.367Z,25.93
2018-12-17T03:05:35.861Z,25.23
2018-12-17T03:08:03.439Z,24.60
2018-12-17T03:10:30.941Z,23.73
2018-12-17T03:12:58.522Z,24.60
2018-12-17T03:15:26.010Z,22.53
2018-12-17T03:17:53.526Z,26.23
2018-12-17T03:20:21.012Z,23.10
2018-12-17T03:22:48.517Z,21.53
2018-12-17T03:25:16.016Z,23.40
2018-12-17T03:27:43.510Z,21.67
2018-12-17T03:30:11.028Z,23.43
2018-12-17T03:32:38.515Z,23.77
2018-12-17T03:35:06.023Z,23.37
2018-12-17T03:37:33.549Z,24.47
2018-12-17T03:40:01.048Z,25.17
2018-12-17T03:42:28.584Z,23.70
2018-12-17T03:44:56.132Z,24.77
2018-12-17T03:47:23.641Z,23.17
2018-12-17T03:49:51.468Z,24.10
2018-12-17T03:52:18.980Z,23.80
2018-12-17T03:54:46.473Z,21.00
2018-12-17T03:57:13.975Z,22.73
2018-12-17T03:59:41.733Z,23.80
2018-12-17T04:02:09.279Z,22.53
2018-12-17T04:04:36.794Z,22.17
2018-12-17T04:07:04.302Z,22.80
2018-12-17T04:09:31.817Z,24.43
2018-12-17T04:11:59.323Z,23.10
2018-12-17T04:14:26.958Z,23.33
2018-12-17T04:16:54.556Z,23.77
2018-12-17T04:19:22.073Z,21.37
2018-12-17T04:21:49.622Z,24.57
2018-12-17T04:24:17.116Z,24.53
2018-12-17T04:26:44.615Z,23.83
2018-12-17T04:29:12.116Z,25.07
2018-12-17T04:31:39.634Z,21.53
2018-12-17T04:34:07.140Z,24.30
2018-12-17T04:36:34.643Z,24.80
2018-12-17T04:39:02.135Z,22.40
2018-12-17T04:41:29.668Z,23.27
2018-12-17T04:43:57.158Z,22.43
2018-12-17T04:46:24.650Z,24.93
2018-12-17T04:48:52.152Z,23.57
2018-12-17T04:51:19.670Z,21.93
2018-12-17T04:53:47.170Z,21.33
2018-12-17T04:56:14.670Z,25.13
2018-12-17T04:58:42.177Z,23.13
2018-12-17T05:01:09.670Z,25.57
2018-12-17T05:03:37.178Z,22.63
2018-12-17T05:06:04.745Z,23.10
2018-12-17T05:08:32.249Z,23.20
2018-12-17T05:10:59.750Z,24.27
2018-12-17T05:13:27.254Z,21.83
2018-12-17T05:15:54.761Z,24.07
2018-12-17T05:18:22.256Z,21.13
2018-12-17T05:20:49.748Z,22.77
2018-12-17T05:23:17.247Z,23.43
2018-12-17T05:25:44.765Z,22.37
2018-12-17T05:28:12.264Z,25.33
2018-12-17T05:30:39.896Z,22.77
2018-12-17T05:33:07.476Z,23.27
2018-12-17T05:35:35.083Z,25.83
2018-12-17T05:38:02.589Z,25.13
2018-12-17T05:40:30.087Z,25.07
2018-12-17T05:42:57.580Z,25.00
2018-12-17T05:45:25.091Z,23.80
2018-12-17T05:47:52.843Z,23.17
2018-12-17T05:50:20.346Z,23.77
2018-12-17T05:52:47.857Z,23.40
2018-12-17T05:55:15.352Z,22.63
2018-12-17T05:57:42.903Z,25.10
2018-12-17T06:00:10.552Z,23.13
2018-12-17T06:02:38.057Z,25.43
2018-12-17T06:05:05.718Z,23.63
2018-12-17T06:07:33.220Z,27.07
2018-12-17T06:10:00.731Z,25.23
2018-12-17T06:12:28.432Z,23.60
2018-12-17T06:14:56.091Z,24.20
2018-12-17T06:17:23.596Z,24.30
2018-12-17T06:19:51.762Z,24.97
2018-12-17T06:22:19.275Z,24.30
2018-12-17T06:24:46.768Z,24.70
2018-12-17T06:27:14.274Z,24.47
2018-12-17T06:29:41.767Z,24.07
2018-12-17T06:32:09.296Z,24.50
2018-12-17T06:34:36.819Z,25.73
2018-12-17T06:37:04.311Z,27.33
2018-12-17T06:39:31.827Z,23.10
2018-12-17T06:41:59.341Z,25.97
2018-12-17T06:44:26.831Z,29.10
2018-12-17T06:46:54.348Z,22.73
2018-12-17T06:49:21.847Z,23.27
2018-12-17T06:51:49.634Z,23.87
2018-12-17T06:54:17.154Z,23.30
2018-12-17T06:56:44.697Z,24.17
2018-12-17T06:59:12.220Z,23.40
2018-12-17T07:01:39.716Z,24.90
2018-12-17T07:04:07.223Z,28.10
2018-12-17T07:06:34.720Z,25.13
2018-12-17T07:09:02.205Z,24.83
2018-12-17T07:11:29.711Z,25.53
2018-12-17T07:13:57.240Z,24.07
2018-12-17T07:16:24.757Z,25.50
2018-12-17T07:18:52.247Z,25.40
2018-12-17T07:21:19.734Z,24.23
2018-12-17T07:23:47.235Z,24.47
2018-12-17T07:26:14.767Z,23.47
2018-12-17T07:28:42.252Z,26.23
2018-12-17T07:31:09.749Z,23.80
2018-12-17T07:33:37.244Z,23.50
2018-12-17T07:36:04.743Z,26.13
2018-12-17T07:38:32.262Z,25.03
2018-12-17T07:40:59.760Z,27.37
2018-12-17T07:43:27.350Z,24.67
2018-12-17T07:45:54.831Z,22.87
2018-12-17T07:48:22.336Z,22.90
2018-12-17T07:50:49.838Z,28.37
2018-12-17T07:53:17.333Z,24.83
2018-12-17T07:55:44.828Z,23.87
2018-12-17T07:58:12.332Z,24.80
2018-12-17T08:00:39.827Z,23.87
2018-12-17T08:03:07.326Z,20.60
2018-12-17T08:05:34.819Z,24.63
2018-12-17T08:08:02.314Z,22.37
2018-12-17T08:10:29.825Z,21.67
2018-12-17T08:12:57.325Z,22.50
2018-12-17T08:15:24.828Z,21.97
2018-12-17T08:18:00.395Z,22.00
2018-12-17T08:20:27.908Z,21.97
2018-12-17T08:22:55.419Z,22.57
2018-12-17T08:25:22.915Z,23.93
2018-12-17T08:27:50.410Z,21.20
2018-12-17T08:30:17.911Z,22.27
2018-12-17T08:32:45.428Z,23.27
2018-12-17T08:35:12.919Z,24.40
2018-12-17T08:37:40.590Z,23.07
2018-12-17T08:40:08.243Z,25.73
2018-12-17T08:42:35.736Z,25.57
2018-12-17T08:45:03.382Z,24.93
2018-12-17T08:47:30.888Z,23.53
2018-12-17T08:49:58.433Z,22.37
2018-12-17T08:52:25.923Z,25.37
2018-12-17T08:54:53.489Z,24.43
2018-12-17T08:57:20.985Z,23.00
2018-12-17T08:59:48.486Z,24.33
2018-12-17T09:02:15.991Z,23.87
2018-12-17T09:04:43.488Z,22.97
2018-12-17T09:07:10.983Z,24.17
2018-12-17T09:09:38.494Z,23.00
2018-12-17T09:12:05.983Z,21.37
2018-12-17T09:14:33.489Z,25.80
2018-12-17T09:17:01.004Z,23.83
2018-12-17T09:19:28.492Z,23.53
2018-12-17T09:21:55.981Z,26.33
2018-12-17T09:24:23.477Z,24.37
2018-12-17T09:26:51.025Z,22.20
2018-12-17T09:29:18.536Z,24.43
2018-12-17T09:31:46.045Z,23.47
2018-12-17T09:34:13.548Z,24.10
2018-12-17T09:36:41.069Z,25.30
2018-12-17T09:39:08.562Z,23.53
2018-12-17T09:41:36.150Z,23.47
2018-12-17T09:44:03.852Z,22.60
2018-12-17T09:46:32.293Z,26.23
2018-12-17T09:48:59.855Z,23.53
2018-12-17T09:51:27.353Z,23.73
2018-12-17T09:53:54.854Z,23.60
2018-12-17T09:56:22.391Z,25.93
2018-12-17T09:58:49.903Z,23.73
2018-12-17T10:01:17.434Z,25.97
2018-12-17T10:03:45.055Z,25.30
2018-12-17T10:06:12.594Z,27.67
2018-12-17T10:08:40.088Z,26.90
2018-12-17T10:11:07.579Z,25.70
2018-12-17T10:13:35.083Z,24.40
2018-12-17T10:16:02.591Z,27.43
2018-12-17T10:18:36.627Z,24.53
2018-12-17T10:20:59.606Z,26.10
2018-12-17T10:23:27.177Z,26.03
2018-12-17T10:25:55.773Z,26.87
2018-12-17T10:28:23.283Z,26.47
2018-12-17T10:30:50.770Z,27.50
2018-12-17T10:33:18.274Z,25.77
2018-12-17T10:35:45.772Z,27.67
2018-12-17T10:38:13.267Z,25.13
2018-12-17T10:40:40.770Z,23.93
2018-12-17T10:43:08.270Z,27.10
2018-12-17T10:45:35.772Z,25.90
2018-12-17T10:48:03.270Z,27.87
2018-12-17T10:50:30.755Z,26.50
2018-12-17T10:52:58.250Z,25.47
2018-12-17T10:55:25.764Z,27.30
2018-12-17T10:57:53.420Z,26.67
2018-12-17T11:03:26.603Z,28.50
2018-12-17T11:05:55.075Z,27.60
2018-12-17T11:08:22.574Z,26.17
2018-12-17T11:10:50.065Z,28.97
2018-12-17T11:13:17.559Z,28.87
2018-12-17T11:15:45.066Z,28.90
2018-12-17T11:18:12.572Z,28.50
2018-12-17T11:20:40.084Z,27.53
2018-12-17T11:23:07.581Z,26.40
2018-12-17T11:25:35.100Z,27.70
2018-12-17T11:28:02.590Z,27.00
2018-12-17T11:30:30.083Z,29.27
2018-12-17T11:32:57.589Z,29.67
2018-12-17T11:35:25.103Z,29.37
2018-12-17T11:37:52.589Z,30.33
2018-12-17T11:40:20.086Z,27.63
2018-12-17T11:42:47.583Z,29.03
2018-12-17T11:45:15.156Z,32.33
2018-12-17T11:47:42.651Z,32.43
2018-12-17T11:50:10.221Z,32.40
2018-12-17T11:52:37.727Z,28.53
2018-12-17T11:55:05.459Z,30.93
2018-12-17T11:57:50.598Z,35.93
2018-12-17T12:00:18.218Z,29.17
2018-12-17T12:02:45.721Z,31.20
2018-12-17T12:05:13.202Z,29.70
2018-12-17T12:07:40.698Z,27.40
2018-12-17T12:10:08.290Z,31.53
2018-12-17T12:12:35.879Z,30.07
2018-12-17T12:15:03.823Z,33.03
2018-12-17T12:17:31.321Z,33.40
2018-12-17T12:19:58.831Z,28.47
2018-12-17T12:22:26.538Z,29.20
2018-12-17T12:24:54.074Z,30.53
2018-12-17T12:27:21.840Z,31.33
2018-12-17T12:29:49.707Z,30.43
2018-12-17T12:32:17.275Z,30.13
2018-12-17T12:34:44.770Z,29.90
2018-12-17T12:37:12.271Z,32.10
2018-12-17T12:39:39.771Z,32.47
2018-12-17T12:42:07.279Z,36.00
2018-12-17T12:44:34.787Z,31.30
2018-12-17T12:47:02.402Z,33.00
2018-12-17T12:49:29.908Z,29.03
2018-12-17T12:51:57.401Z,31.13
2018-12-17T12:54:24.908Z,29.37
2018-12-17T12:56:52.407Z,34.17
2018-12-17T12:59:19.920Z,32.90
2018-12-17T13:01:47.428Z,32.13
2018-12-17T13:04:14.917Z,31.07
2018-12-17T13:06:42.423Z,30.17
2018-12-17T13:09:09.921Z,31.67
2018-12-17T13:11:37.432Z,32.40
2018-12-17T13:14:05.007Z,30.77
2018-12-17T13:16:32.513Z,34.90
2018-12-17T13:19:00.036Z,30.67
2018-12-17T13:21:27.535Z,31.77
2018-12-17T13:23:55.043Z,31.67
2018-12-17T13:26:22.611Z,31.90
2018-12-17T13:28:50.099Z,32.63
2018-12-17T13:31:17.773Z,32.30
2018-12-17T13:33:45.282Z,31.80
2018-12-17T13:36:12.775Z,30.03
2018-12-17T13:38:40.319Z,32.67
2018-12-17T13:41:07.811Z,33.00
2018-12-17T13:43:35.302Z,32.87
2018-12-17T13:46:02.938Z,32.90
2018-12-17T13:48:30.472Z,34.23
2018-12-17T13:50:59.941Z,34.57
2018-12-17T13:53:33.856Z,34.03
2018-12-17T13:56:01.351Z,32.93
2018-12-17T13:58:28.849Z,28.30
2018-12-17T14:01:32.327Z,37.80
2018-12-17T14:03:59.849Z,33.07
2018-12-17T14:06:28.125Z,36.40
2018-12-17T14:08:55.966Z,36.13
2018-12-17T14:11:23.468Z,35.77
2018-12-17T14:13:51.047Z,32.90
2018-12-17T14:16:20.598Z,32.63
2018-12-17T14:18:53.870Z,32.53
2018-12-17T14:21:27.116Z,32.67
2018-12-17T14:23:54.624Z,31.70
2018-12-17T14:26:22.116Z,36.00
2018-12-17T14:28:49.623Z,31.90
2018-12-17T14:31:17.124Z,37.03
2018-12-17T14:33:44.638Z,33.50
2018-12-17T14:36:12.131Z,36.23
2018-12-17T14:38:39.713Z,41.53
2018-12-17T14:41:07.224Z,31.23
2018-12-17T14:43:34.721Z,33.17
2018-12-17T14:46:02.233Z,33.60
2018-12-17T14:48:29.727Z,33.23
2018-12-17T14:50:57.239Z,31.80
2018-12-17T14:53:24.775Z,35.93
2018-12-17T14:55:52.371Z,34.60
2018-12-17T14:58:19.865Z,34.67
2018-12-17T15:00:47.363Z,32.83
2018-12-17T15:03:14.892Z,31.43
2018-12-17T15:05:42.410Z,36.83
2018-12-17T15:08:09.917Z,32.97
2018-12-17T15:10:37.420Z,32.77
2018-12-17T15:13:04.921Z,34.20
2018-12-17T15:15:32.407Z,33.53
2018-12-17T15:17:59.899Z,34.67
2018-12-17T15:20:27.398Z,32.80
2018-12-17T15:22:54.944Z,32.13
2018-12-17T15:25:22.513Z,36.50
2018-12-17T15:27:50.128Z,35.83
2018-12-17T15:30:17.632Z,32.87
2018-12-17T15:32:45.216Z,32.67
2018-12-17T15:35:12.710Z,31.47
2018-12-17T15:37:40.213Z,33.23
2018-12-17T15:40:07.893Z,35.00
2018-12-17T15:42:40.717Z,31.10
2018-12-17T15:45:05.376Z,33.63
2018-12-17T15:47:32.881Z,36.00
2018-12-17T15:50:00.381Z,31.70
2018-12-17T15:52:28.342Z,30.40
2018-12-17T15:54:55.913Z,32.23
2018-12-17T15:57:23.436Z,31.60
2018-12-17T15:59:50.943Z,34.03
2018-12-17T16:02:18.464Z,32.27
2018-12-17T16:04:45.966Z,32.07
2018-12-17T16:07:13.458Z,30.53
2018-12-17T16:09:40.959Z,33.73
2018-12-17T16:12:08.447Z,30.07
2018-12-17T16:14:35.950Z,32.60
2018-12-17T16:17:03.523Z,31.70
2018-12-17T16:19:31.045Z,31.13
2018-12-17T16:21:58.560Z,33.93
2018-12-17T16:24:26.048Z,34.97
2018-12-17T16:26:53.643Z,35.93
2018-12-17T16:29:21.156Z,31.57
2018-12-17T16:31:48.677Z,33.17
2018-12-17T16:34:16.179Z,34.07
2018-12-17T16:36:43.951Z,32.77
2018-12-17T16:39:11.456Z,36.83
2018-12-17T16:41:38.954Z,33.17
2018-12-17T16:44:06.467Z,29.97
2018-12-17T16:46:33.968Z,33.33
2018-12-17T16:49:01.504Z,29.80
2018-12-17T16:51:29.083Z,33.23
2018-12-17T16:53:56.975Z,33.20
2018-12-17T16:56:24.507Z,32.00
2018-12-17T16:58:52.013Z,32.20
2018-12-17T17:01:19.514Z,34.93
2018-12-17T17:03:47.014Z,32.67
2018-12-17T17:06:14.585Z,34.60
2018-12-17T17:08:42.083Z,31.30
2018-12-17T17:11:09.579Z,28.77
2018-12-17T17:13:37.088Z,32.07
2018-12-17T17:16:04.688Z,31.57
2018-12-17T17:18:32.199Z,33.40
2018-12-17T17:20:59.700Z,29.73
2018-12-17T17:23:27.354Z,30.03
2018-12-17T17:25:54.838Z,30.97
2018-12-17T17:28:22.347Z,34.77
2018-12-17T17:30:49.854Z,33.77
2018-12-17T17:33:17.347Z,36.90
2018-12-17T17:35:44.872Z,34.13
2018-12-17T17:38:12.394Z,34.73
2018-12-17T17:40:39.908Z,33.67
2018-12-17T17:43:07.406Z,32.13
2018-12-17T17:45:34.911Z,33.80
2018-12-17T17:48:02.423Z,39.03
2018-12-17T17:50:29.927Z,34.63
2018-12-17T17:52:57.452Z,36.70
2018-12-17T17:55:24.957Z,37.77
2018-12-17T17:57:52.462Z,37.13
2018-12-17T18:00:19.975Z,38.47
2018-12-17T18:02:47.489Z,38.37
2018-12-17T18:05:14.993Z,33.27
2018-12-17T18:07:42.493Z,35.93
2018-12-17T18:10:10.141Z,33.77
2018-12-17T18:12:37.773Z,30.70
2018-12-17T18:15:05.672Z,33.93
2018-12-17T18:17:33.191Z,34.17
2018-12-17T18:20:00.702Z,33.30
2018-12-17T18:22:28.214Z,33.07
2018-12-17T18:24:55.711Z,32.33
2018-12-17T18:27:23.220Z,31.60
2018-12-17T18:29:50.727Z,31.97
2018-12-17T18:32:18.232Z,32.10
2018-12-17T18:34:45.734Z,32.20
2018-12-17T18:37:13.258Z,30.80
2018-12-17T18:39:40.965Z,33.17
2018-12-17T18:42:08.459Z,30.47
2018-12-17T18:44:35.984Z,33.23
2018-12-17T18:47:03.500Z,30.13
2018-12-17T18:49:31.024Z,29.20
2018-12-17T18:51:58.940Z,30.27
2018-12-17T18:54:26.479Z,31.93
2018-12-17T18:56:53.992Z,33.47
2018-12-17T18:59:21.510Z,28.87
2018-12-17T19:01:49.025Z,29.67
2018-12-17T19:04:16.563Z,30.73
2018-12-17T19:06:44.074Z,31.80
2018-12-17T19:09:11.578Z,31.13
2018-12-17T19:11:39.102Z,31.53
2018-12-17T19:14:06.615Z,28.80
2018-12-17T19:16:34.120Z,32.33
2018-12-17T19:19:01.618Z,31.27
2018-12-17T19:21:29.138Z,28.83
2018-12-17T19:23:56.637Z,31.83
2018-12-17T19:26:24.152Z,28.90
2018-12-17T19:28:51.654Z,30.87
2018-12-17T19:31:19.175Z,31.53
2018-12-17T19:33:46.675Z,33.90
2018-12-17T19:36:14.190Z,32.17
2018-12-17T19:38:41.709Z,30.17
2018-12-17T19:41:09.219Z,31.60
2018-12-17T19:43:36.727Z,32.27
2018-12-17T19:46:04.258Z,32.13
2018-12-17T19:48:31.795Z,33.33
2018-12-17T19:50:59.340Z,30.50
2018-12-17T19:53:27.242Z,31.60
2018-12-17T19:55:55.313Z,31.00
2018-12-17T19:58:23.544Z,31.87
2018-12-17T20:00:51.247Z,29.70
2018-12-17T20:03:19.527Z,31.10
2018-12-17T20:05:47.100Z,29.47
2018-12-17T20:08:14.906Z,28.60
2018-12-17T20:10:42.497Z,30.67
2018-12-17T20:13:10.024Z,28.90
2018-12-17T20:15:37.928Z,30.27
2018-12-17T20:39:01.976Z,28.63
2018-12-17T20:41:29.484Z,29.87
2018-12-17T20:43:57.492Z,28.00
2018-12-17T20:46:26.003Z,29.83
2018-12-17T20:48:53.630Z,24.63
2018-12-17T20:51:21.459Z,30.03
2018-12-17T20:53:49.468Z,28.90
2018-12-17T20:56:17.251Z,32.70
2018-12-17T20:58:45.120Z,28.57
2018-12-17T21:01:12.901Z,33.53
2018-12-17T21:03:40.558Z,30.60
2018-12-17T21:06:08.479Z,30.30
2018-12-17T21:08:36.455Z,34.13
2018-12-17T21:11:04.442Z,33.77
2018-12-17T21:13:32.400Z,32.73
2018-12-17T21:16:00.493Z,31.43
2018-12-17T21:18:28.488Z,30.57
2018-12-17T21:20:56.705Z,30.67
2018-12-17T21:23:25.009Z,30.13
2018-12-17T21:25:52.987Z,30.73
2018-12-17T21:28:21.678Z,30.77
2018-12-17T21:30:49.324Z,31.63
2018-12-17T21:33:16.998Z,28.10
2018-12-17T21:35:44.533Z,30.10
2018-12-17T21:38:12.033Z,33.83
2018-12-17T21:40:40.185Z,29.50
2018-12-17T21:43:07.795Z,31.97
2018-12-17T21:49:06.729Z,29.40
2018-12-17T21:51:34.315Z,30.83
2018-12-17T21:54:02.010Z,28.90
2018-12-17T21:56:29.530Z,32.43
2018-12-17T21:58:57.041Z,29.53
2018-12-17T22:01:24.541Z,31.50
2018-12-17T22:03:52.049Z,31.53
2018-12-17T22:06:19.600Z,27.87
2018-12-17T22:08:47.095Z,27.40
2018-12-17T22:11:14.605Z,28.37
2018-12-17T22:13:42.110Z,27.50
2018-12-17T22:16:09.718Z,26.30
2018-12-17T22:18:37.418Z,28.23
2018-12-17T22:21:04.936Z,32.17
2018-12-17T22:23:32.452Z,29.87
2018-12-17T22:26:00.566Z,29.83
2018-12-17T22:28:28.080Z,29.20
2018-12-17T22:30:55.572Z,31.27
2018-12-17T22:33:23.910Z,29.50
2018-12-17T22:35:51.431Z,27.70
2018-12-17T22:38:18.961Z,28.83
2018-12-17T22:40:46.477Z,28.30
2018-12-17T22:43:13.994Z,29.53
2018-12-17T22:45:41.509Z,29.00
2018-12-17T22:48:09.024Z,30.90
2018-12-17T22:50:36.528Z,30.70
2018-12-17T22:53:04.032Z,30.77
2018-12-17T22:55:31.544Z,32.03
2018-12-17T22:57:59.115Z,30.53
2018-12-17T23:00:26.772Z,31.77
2018-12-17T23:02:54.280Z,29.93
2018-12-17T23:05:22.355Z,29.73
2018-12-17T23:07:49.857Z,28.07
2018-12-17T23:10:31.381Z,31.47
2018-12-17T23:13:10.911Z,32.90
2018-12-17T23:15:50.279Z,30.00
2018-12-17T23:18:17.406Z,30.00
2018-12-17T23:20:44.919Z,32.97
2018-12-17T23:23:12.703Z,28.83
2018-12-17T23:25:40.207Z,34.63
2018-12-17T23:28:08.084Z,32.90
2018-12-17T23:30:35.603Z,31.67
2018-12-17T23:33:03.122Z,30.27
2018-12-17T23:35:30.631Z,30.40
2018-12-17T23:37:58.137Z,32.70
2018-12-17T23:40:25.635Z,30.30
2018-12-17T23:42:53.131Z,32.10
2018-12-17T23:45:20.693Z,32.37
2018-12-17T23:47:48.272Z,30.17
2018-12-17T23:50:15.838Z,30.53
2018-12-17T23:52:43.355Z,31.17
2018-12-17T23:55:10.855Z,30.63
2018-12-17T23:57:38.355Z,30.10
